METAR Data
IDs: Format: Raw Decoded Include TAF

Data at: 0726 UTC 03 Aug 2021

KVCB 030653Z AUTO 21005KT 10SM CLR 23/07 A2996 RMK AO2 SLP142 T02280067
KVCB 030553Z AUTO 22005KT 10SM CLR 23/08 A2996 RMK AO2 SLP143 T02280083 10356 20228 50002
KVCB 030453Z AUTO 23005KT 10SM CLR 25/09 A2996 RMK AO2 SLP143 T02500089
KVCB 030353Z AUTO 23005KT 10SM CLR 28/08 A2995 RMK AO2 SLP141 T02780083
KVCB 030253Z AUTO 21006KT 10SM CLR 31/08 A2995 RMK AO2 SLP141 T03060083 56009
KVCB 030153Z AUTO 20007KT 10SM CLR 32/09 A2995 RMK AO2 SLP141 T03220089
KVCB 030053Z AUTO 21008KT 10SM CLR 35/04 A2997 RMK AO2 SLP146 T03500039
KVCB 022353Z AUTO 17007KT 10SM CLR 34/03 A2998 RMK AO2 SLP150 T03440028 10356 20267 58022
KVCB 022253Z AUTO 16005KT 10SM CLR 35/03 A3000 RMK AO2 SLP157 T03500033
KVCB 022153Z AUTO 23006KT 10SM CLR 34/03 A3002 RMK AO2 SLP165 T03390033
KVCB 022053Z AUTO 23005KT 10SM CLR 32/04 A3004 RMK AO2 SLP172 T03220039 58010
KVCB 021953Z AUTO 10SM CLR 31/08 A3006 RMK AO2 SLP178 T03060078
KVCB 021853Z AUTO VRB05KT 10SM CLR 29/08 A3007 RMK AO2 SLP182 T02890078
KVCB 021753Z AUTO 28003KT 10SM CLR 27/07 A3007 RMK AO2 SLP182 T02720072 10272 20167 50005
KVCB 021653Z AUTO 24004KT 10SM CLR 25/07 A3008 RMK AO2 SLP182 T02500072
KVCB 021553Z AUTO VRB03KT 10SM CLR 23/08 A3007 RMK AO2 SLP182 T02280078
KVCB 021453Z AUTO 23006KT 10SM CLR 20/08 A3006 RMK AO2 SLP177 T02000083 51017
KVCB 021353Z AUTO 23005KT 10SM CLR 17/08 A3005 RMK AO2 SLP175 T01720078
KVCB 021253Z AUTO 22006KT 10SM CLR 18/08 A3002 RMK AO2 SLP165 T01780078
KVCB 021153Z AUTO 22007KT 10SM CLR 19/07 A3001 RMK AO2 SLP160 T01890072 10233 20189 53006
KVCB 021053Z AUTO 22005KT 10SM CLR 20/06 A2999 RMK AO2 SLP155 T02000061
KVCB 020953Z AUTO VRB05KT 10SM CLR 22/03 A2999 RMK AO2 SLP153 T02220033
KVCB 020853Z AUTO 21008KT 10SM CLR 22/04 A2999 RMK AO2 SLP154 T02220044 50001
KVCB 020753Z AUTO 21007KT 10SM CLR 23/06 A3000 RMK AO2 SLP155 T02280056 403670161
KVCB 020653Z AUTO 20007G17KT 10SM CLR 23/07 A2999 RMK AO2 SLP154 T02330067
KVCB 020553Z AUTO VRB06KT 10SM CLR 22/09 A2999 RMK AO2 SLP153 T02170089 10356 20217 51013
KVCB 020453Z AUTO VRB06KT 10SM CLR 23/08 A2998 RMK AO2 SLP150 T02330083
KVCB 020353Z AUTO 21007G14KT 10SM CLR 24/09 A2997 RMK AO2 SLP145 T02440094
KVCB 020253Z AUTO 20007KT 10SM CLR 28/09 A2995 RMK AO2 SLP140 T02830094 53004
KVCB 020153Z AUTO 24010KT 10SM CLR 31/08 A2994 RMK AO2 SLP136 T03110083
KVCB 020053Z AUTO 23010KT 7SM CLR 34/07 A2994 RMK AO2 SLP136 T03390072
KVCB 020041Z AUTO 23013G19KT 10SM CLR 34/06 A2994 RMK AO2 T03440061
KVCB 020032Z AUTO 25012KT 2SM HZ CLR 34/06 A2994 RMK AO2 T03440061
KVCB 012353Z AUTO 23012KT 10SM CLR 36/08 A2994 RMK AO2 SLP137 T03560083 10367 20267 56016
KVCB 012253Z AUTO 22013G16KT 10SM CLR 36/09 A2995 RMK AO2 SLP140 T03610094
KVCB 012153Z AUTO 17008KT 10SM CLR 34/11 A2997 RMK AO2 SLP147 T03440111
KVCB 012053Z AUTO 21008KT 10SM CLR 34/11 A2999 RMK AO2 SLP152 T03390106 58014
KVCB 011953Z AUTO 19005KT 10SM CLR 32/12 A3000 RMK AO2 SLP156 T03220117